Time;durP1;ratioP1;P1;durP2;ratioP2;P2;SDS_P1;SDS_P2;PMS_P1;PMS_P2;Temp;Humidity;BMP_temperature;BMP_pressure;BME280_temperature;BME280_humidity;BME280_pressure;Samples;Min_cycle;Max_cycle;Signal;HPM_P1;HPM_P2
2022/08/29 00:00:26;;;;;;;0.80;0.80;;;;;;;22.57;60.57;93641.03;4847306;29;20582;-85
2022/08/29 00:02:53;;;;;;;1.38;1.00;;;;;;;22.55;60.66;93647.06;4830199;29;20049;-85
2022/08/29 00:05:20;;;;;;;1.40;1.20;;;;;;;22.54;60.58;93647.59;4861968;29;20064;-86
2022/08/29 00:07:45;;;;;;;1.20;0.82;;;;;;;22.53;60.82;93652.38;4845637;29;20038;-85
2022/08/29 00:10:11;;;;;;;1.38;1.17;;;;;;;22.53;60.74;93649.63;4828875;29;20512;-85
2022/08/29 00:12:37;;;;;;;1.35;1.20;;;;;;;22.54;60.54;93651.09;4842666;29;20041;-85
2022/08/29 00:15:04;;;;;;;1.05;0.90;;;;;;;22.54;60.35;93644.84;4828452;29;20080;-86
2022/08/29 00:17:30;;;;;;;1.75;1.13;;;;;;;22.54;60.74;93642.09;4847902;29;20042;-85
2022/08/29 00:19:55;;;;;;;1.02;0.82;;;;;;;22.54;60.63;93637.31;4841556;29;20065;-85
2022/08/29 00:22:20;;;;;;;1.10;0.98;;;;;;;22.54;60.51;93639.34;4828399;29;20034;-86
2022/08/29 00:24:46;;;;;;;0.80;0.80;;;;;;;22.53;60.56;93641.34;4830538;29;20050;-85
2022/08/29 00:27:11;;;;;;;1.15;1.00;;;;;;;22.53;60.69;93638.59;4830866;29;20536;-85
2022/08/29 00:29:37;;;;;;;1.20;1.10;;;;;;;22.51;60.63;93632.91;4830980;29;20046;-85
2022/08/29 00:32:02;;;;;;;1.20;1.10;;;;;;;22.54;60.56;93640.09;4808322;29;20047;-86
2022/08/29 00:34:28;;;;;;;1.75;1.40;;;;;;;22.54;60.68;93634.56;4808461;29;20086;-85
2022/08/29 00:36:53;;;;;;;1.45;1.17;;;;;;;22.55;60.42;93641.56;4840925;29;20066;-85
2022/08/29 00:39:19;;;;;;;1.20;1.02;;;;;;;22.53;60.55;93640.63;4826595;29;20073;-85
2022/08/29 00:41:44;;;;;;;1.10;1.00;;;;;;;22.53;60.71;93646.13;4825165;29;20038;-85
2022/08/29 00:44:10;;;;;;;1.35;0.90;;;;;;;22.50;60.64;93639.69;4841977;29;20502;-86
2022/08/29 00:46:54;;;;;;;1.65;1.33;;;;;;;22.51;60.48;93638.41;4826321;29;20026;-85
2022/08/29 00:49:38;;;;;;;2.05;1.10;;;;;;;22.53;60.55;93640.63;4836329;29;20043;-85
2022/08/29 00:52:07;;;;;;;2.17;1.17;;;;;;;22.53;60.59;93633.09;4825011;29;20168;-86
2022/08/29 00:54:33;;;;;;;1.60;1.17;;;;;;;22.51;60.66;93627.41;4824653;29;20137;-85
2022/08/29 00:56:58;;;;;;;1.10;1.00;;;;;;;22.52;60.44;93628.84;4825373;29;20566;-85
2022/08/29 00:59:27;;;;;;;2.00;1.30;;;;;;;22.53;60.52;93633.09;4810030;29;20050;-85
2022/08/29 01:01:52;;;;;;;1.65;1.25;;;;;;;22.51;60.60;93638.41;4823455;29;20050;-85
2022/08/29 01:04:18;;;;;;;1.55;1.30;;;;;;;22.50;60.71;93625.91;4820312;29;20234;-85
2022/08/29 01:06:43;;;;;;;1.13;1.02;;;;;;;22.51;60.66;93632.16;4805820;29;20138;-85
2022/08/29 01:09:10;;;;;;;1.15;1.02;;;;;;;22.53;60.79;93626.84;4837122;29;20054;-85
2022/08/29 01:14:20;;;;;;;1.45;1.20;;;;;;;22.52;60.53;93633.63;4842451;29;20080;-85
2022/08/29 01:16:46;;;;;;;1.33;1.00;;;;;;;22.52;60.60;93622.59;4820754;29;20103;-85
2022/08/29 01:19:37;;;;;;;1.23;1.13;;;;;;;22.50;60.35;93633.44;4808824;29;20038;-85
2022/08/29 01:22:21;;;;;;;1.50;1.20;;;;;;;22.50;60.44;93634.19;4817525;29;20050;-88
2022/08/29 01:24:49;;;;;;;0.98;0.88;;;;;;;22.51;60.47;93632.91;4822739;29;20043;-85
2022/08/29 01:27:19;;;;;;;1.40;1.20;;;;;;;22.49;60.43;93624.44;4824578;29;20042;-86
2022/08/29 01:29:45;;;;;;;1.30;1.20;;;;;;;22.50;60.58;93622.41;4840330;29;20124;-86
2022/08/29 01:32:11;;;;;;;1.55;1.20;;;;;;;22.49;60.68;93623.69;4840302;29;20046;-85
2022/08/29 01:34:37;;;;;;;0.93;0.90;;;;;;;22.50;60.50;93620.41;4824166;29;20044;-86
2022/08/29 01:37:04;;;;;;;1.10;1.00;;;;;;;22.49;60.55;93629.94;4838839;29;20045;-88
2022/08/29 01:39:32;;;;;;;1.60;1.50;;;;;;;22.50;60.47;93625.91;4806440;29;20125;-85
2022/08/29 01:42:04;;;;;;;0.93;0.90;;;;;;;22.50;60.46;93623.16;4817950;29;20418;-85
2022/08/29 01:44:29;;;;;;;1.77;1.20;;;;;;;22.51;60.34;93626.66;4809411;29;20451;-86
2022/08/29 01:46:56;;;;;;;2.22;1.30;;;;;;;22.49;60.48;93621.69;4853640;29;20071;-86
2022/08/29 01:49:21;;;;;;;1.38;1.00;;;;;;;22.50;60.58;93628.66;4837563;29;20062;-85
2022/08/29 01:51:47;;;;;;;1.50;1.10;;;;;;;22.49;60.49;93624.44;4807474;29;20031;-85
2022/08/29 01:54:13;;;;;;;1.55;1.20;;;;;;;22.51;60.39;93623.91;4821607;29;20049;-85
2022/08/29 01:56:41;;;;;;;2.20;1.15;;;;;;;22.49;60.49;93627.19;4807106;29;20039;-85
2022/08/29 01:59:08;;;;;;;1.55;1.05;;;;;;;22.51;60.32;93634.91;4808032;29;20553;-85
2022/08/29 02:01:37;;;;;;;1.30;1.10;;;;;;;22.51;60.28;93637.66;4826022;29;20042;-85
2022/08/29 02:04:02;;;;;;;1.40;1.25;;;;;;;22.49;60.58;93632.69;4838000;29;20413;-86
2022/08/29 02:06:28;;;;;;;1.52;1.15;;;;;;;22.50;60.42;93628.66;4825450;29;20050;-85
2022/08/29 02:08:54;;;;;;;1.42;1.23;;;;;;;22.50;60.41;93627.94;4843337;29;20041;-86
2022/08/29 02:11:19;;;;;;;1.10;0.85;;;;;;;22.48;60.27;93620.19;4824266;29;20034;-85
2022/08/29 02:13:47;;;;;;;1.42;1.05;;;;;;;22.50;60.41;93623.16;4852878;29;20081;-86
2022/08/29 02:16:13;;;;;;;1.48;1.00;;;;;;;22.48;60.36;93630.47;4824139;29;20042;-85
2022/08/29 02:18:40;;;;;;;1.70;1.13;;;;;;;22.48;60.16;93622.19;4819719;29;20045;-85
2022/08/29 02:21:06;;;;;;;1.17;1.05;;;;;;;22.49;60.46;93618.19;4840392;29;20557;-85
2022/08/29 02:23:33;;;;;;;1.02;0.93;;;;;;;22.49;60.55;93616.16;4825024;29;20057;-85
2022/08/29 02:25:58;;;;;;;1.10;1.00;;;;;;;22.49;60.50;93618.19;4841579;29;20122;-86
2022/08/29 02:28:23;;;;;;;1.10;1.00;;;;;;;22.50;60.59;93625.91;4826762;29;20045;-86
2022/08/29 02:30:51;;;;;;;1.80;1.20;;;;;;;22.48;60.57;93619.44;4828139;29;20045;-85
2022/08/29 02:33:17;;;;;;;0.75;0.75;;;;;;;22.48;60.25;93627.72;4840769;29;20056;-85
2022/08/29 02:35:42;;;;;;;2.42;1.35;;;;;;;22.49;60.43;93626.44;4825940;29;20057;-86
2022/08/29 02:38:08;;;;;;;1.65;1.20;;;;;;;22.48;60.33;93628.47;4824078;29;20124;-86
2022/08/29 02:40:34;;;;;;;1.25;1.15;;;;;;;22.48;60.35;93625.69;4839421;29;20034;-85
2022/08/29 02:42:59;;;;;;;1.20;1.10;;;;;;;22.46;60.37;93628.25;4838102;29;20038;-85
2022/08/29 02:45:25;;;;;;;1.85;1.60;;;;;;;22.49;60.11;93621.69;4837469;29;20046;-85
2022/08/29 02:47:51;;;;;;;2.85;0.95;;;;;;;22.47;60.37;93628.97;4822895;29;20062;-85
2022/08/29 02:50:16;;;;;;;1.45;1.27;;;;;;;22.48;60.41;93624.97;4816978;29;20039;-85
2022/08/29 02:52:42;;;;;;;1.20;0.95;;;;;;;22.48;60.48;93624.97;4835434;29;20042;-85
2022/08/29 02:55:08;;;;;;;1.30;1.20;;;;;;;22.47;60.30;93631.75;4835387;29;20121;-84
2022/08/29 02:57:34;;;;;;;1.15;0.80;;;;;;;22.47;60.36;93632.47;4834402;29;20099;-83
2022/08/29 02:59:59;;;;;;;1.65;1.25;;;;;;;22.48;60.41;93636.72;4820872;29;20035;-84
2022/08/29 03:02:25;;;;;;;2.25;1.10;;;;;;;22.47;60.41;93635.25;4848538;29;20414;-83
2022/08/29 03:04:52;;;;;;;1.50;1.15;;;;;;;22.48;60.28;93636.72;4830830;29;20764;-84
2022/08/29 03:07:17;;;;;;;1.15;1.05;;;;;;;22.47;60.35;93640.75;4844797;29;20554;-85
2022/08/29 03:09:43;;;;;;;1.35;1.02;;;;;;;22.46;60.18;93641.28;4847702;29;20041;-85
2022/08/29 03:12:08;;;;;;;1.60;1.38;;;;;;;22.48;60.35;93638.72;4844575;29;20045;-86
2022/08/29 03:14:33;;;;;;;1.23;1.10;;;;;;;22.48;60.35;93635.97;4835956;29;20053;-85
2022/08/29 03:16:59;;;;;;;1.60;1.30;;;;;;;22.46;60.29;93641.28;4833979;29;20395;-85
2022/08/29 03:19:25;;;;;;;1.67;1.48;;;;;;;22.47;59.97;93642.75;4826638;29;20490;-85
2022/08/29 03:21:50;;;;;;;1.75;1.30;;;;;;;22.45;60.14;93640.53;4824466;29;20613;-86
2022/08/29 03:24:16;;;;;;;1.33;1.10;;;;;;;22.47;60.18;93638.00;4822218;29;20046;-85
2022/08/29 03:26:41;;;;;;;1.48;1.23;;;;;;;22.46;60.23;93644.03;4805127;29;20156;-85
2022/08/29 03:29:06;;;;;;;1.33;1.10;;;;;;;22.44;60.38;93647.31;4805297;29;20046;-86
2022/08/29 03:31:32;;;;;;;1.85;1.27;;;;;;;22.47;60.09;93643.50;4804604;29;20035;-85
2022/08/29 03:33:57;;;;;;;1.48;1.35;;;;;;;22.45;59.83;93648.81;4821578;29;20039;-85
2022/08/29 03:36:25;;;;;;;1.35;1.25;;;;;;;22.44;59.87;93646.56;4803963;29;20042;-85
2022/08/29 03:38:51;;;;;;;1.77;1.33;;;;;;;22.45;60.19;93654.31;4831333;29;20512;-85
2022/08/29 03:41:24;;;;;;;1.33;1.23;;;;;;;22.46;60.17;93655.78;4840587;29;20053;-85
2022/08/29 03:43:49;;;;;;;1.50;1.05;;;;;;;22.47;60.31;93653.78;4840084;29;20129;-87
2022/08/29 03:46:15;;;;;;;2.08;1.50;;;;;;;22.42;60.32;93649.84;4858022;29;20129;-86
2022/08/29 03:48:40;;;;;;;4.20;1.50;;;;;;;22.46;60.18;93649.53;4840799;29;20086;-87
2022/08/29 03:51:06;;;;;;;2.70;1.50;;;;;;;22.46;59.96;93639.25;4832392;29;20383;-85
2022/08/29 03:53:32;;;;;;;1.20;1.10;;;;;;;22.47;60.10;93651.03;4825055;29;20046;-86
2022/08/29 03:55:57;;;;;;;1.10;1.00;;;;;;;22.44;60.27;93644.56;4842132;29;20147;-85
2022/08/29 03:58:23;;;;;;;2.00;1.40;;;;;;;22.46;60.26;93647.53;4825276;29;20042;-93
2022/08/29 04:00:48;;;;;;;1.77;1.40;;;;;;;22.44;60.36;93661.09;4831000;29;20037;-86
2022/08/29 04:03:13;;;;;;;1.30;1.20;;;;;;;22.47;60.17;93662.03;4839379;29;20057;-86
2022/08/29 04:05:39;;;;;;;4.47;3.40;;;;;;;22.41;58.50;93664.91;4816900;29;20045;-87
2022/08/29 04:08:04;;;;;;;6.00;3.92;;;;;;;22.38;57.99;93665.22;4801032;29;20037;-94
2022/08/29 04:10:32;;;;;;;6.80;4.68;;;;;;;22.33;57.43;93671.56;4819678;29;20391;-85
2022/08/29 04:12:58;;;;;;;9.77;5.50;;;;;;;22.27;57.32;93673.72;4830816;29;20038;-86
2022/08/29 04:15:24;;;;;;;7.85;5.40;;;;;;;22.31;56.83;93671.34;4807856;29;20597;-87
2022/08/29 04:17:53;;;;;;;8.38;5.95;;;;;;;22.21;57.21;93677.31;4810219;29;20109;-85
2022/08/29 04:20:18;;;;;;;10.00;5.68;;;;;;;22.16;56.91;93683.66;4814249;29;20058;-86
2022/08/29 04:22:44;;;;;;;13.45;5.40;;;;;;;22.19;56.88;93685.34;4808975;29;20458;-87
2022/08/29 04:25:11;;;;;;;10.18;6.57;;;;;;;22.15;56.97;93684.19;4822502;29;20045;-86
2022/08/29 04:27:37;;;;;;;20.90;15.57;;;;;;;22.09;56.99;93684.28;4802537;29;20168;-84
2022/08/29 04:30:08;;;;;;;46.50;30.90;;;;;;;22.14;57.27;93682.69;4819562;29;20058;-91
2022/08/29 04:32:33;;;;;;;25.65;17.45;;;;;;;22.18;57.38;93691.38;4812239;29;20094;-86
2022/08/29 04:34:59;;;;;;;29.65;20.38;;;;;;;22.15;57.52;93693.19;4825714;29;20038;-87
2022/08/29 04:37:24;;;;;;;19.23;8.82;;;;;;;22.15;57.52;93684.91;4823501;29;20046;-87
2022/08/29 04:39:50;;;;;;;22.45;16.10;;;;;;;22.19;57.52;93688.09;4827696;29;20058;-83
2022/08/29 04:42:17;;;;;;;38.22;21.05;;;;;;;22.15;57.54;93692.44;4812279;29;20063;-88
2022/08/29 04:44:43;;;;;;;12.73;10.30;;;;;;;22.09;57.09;93700.78;4828890;29;20037;-87
2022/08/29 04:47:09;;;;;;;26.55;9.15;;;;;;;22.11;57.19;93695.50;4826574;29;20050;-90
2022/08/29 04:49:34;;;;;;;25.80;10.93;;;;;;;22.10;57.21;93698.78;4820232;29;20034;-93
2022/08/29 04:52:03;;;;;;;19.65;9.07;;;;;;;22.04;57.17;93689.91;4802521;29;20050;-87
2022/08/29 04:54:28;;;;;;;15.55;7.15;;;;;;;22.04;57.37;93696.16;4808140;29;20045;-88
2022/08/29 04:56:56;;;;;;;19.60;7.72;;;;;;;22.03;57.35;93694.66;4813896;29;20106;-87
2022/08/29 04:59:22;;;;;;;23.40;8.85;;;;;;;22.03;57.78;93699.44;4811855;29;20047;-86
2022/08/29 05:01:50;;;;;;;20.38;10.77;;;;;;;22.03;57.41;93707.69;4811151;29;20165;-92
2022/08/29 05:04:16;;;;;;;30.88;11.52;;;;;;;22.08;57.08;93704.84;4798624;29;20069;-84
2022/08/29 05:06:42;;;;;;;32.08;13.73;;;;;;;22.02;57.64;93714.47;4830277;29;20546;-85
2022/08/29 05:09:07;;;;;;;33.10;12.93;;;;;;;22.01;57.74;93708.22;4813190;29;20043;-89
2022/08/29 05:11:34;;;;;;;41.10;16.08;;;;;;;21.99;57.91;93707.97;4805090;29;20057;-87
2022/08/29 05:14:01;;;;;;;97.90;20.65;;;;;;;21.99;57.85;93710.72;4820705;29;20042;-90
2022/08/29 05:16:28;;;;;;;111.43;23.02;;;;;;;21.97;57.77;93699.50;4834563;29;20110;-89
2022/08/29 05:18:56;;;;;;;101.93;25.52;;;;;;;21.97;57.87;93699.50;4823334;29;20070;-86
2022/08/29 05:21:26;;;;;;;59.78;18.88;;;;;;;21.93;57.87;93706.56;4793004;29;20047;-88
2022/08/29 05:23:52;;;;;;;57.53;16.83;;;;;;;21.96;57.68;93708.28;4762960;29;20167;-90
2022/08/29 05:26:17;;;;;;;33.20;12.15;;;;;;;21.94;57.82;93708.81;4779804;29;20044;-88
2022/08/29 05:28:43;;;;;;;46.80;14.65;;;;;;;21.93;57.42;93704.56;4787223;29;20051;-89
2022/08/29 05:31:10;;;;;;;78.60;18.67;;;;;;;21.93;57.92;93706.56;4766034;29;20063;-88
2022/08/29 05:33:36;;;;;;;71.50;25.10;;;;;;;21.88;58.21;93708.16;4763040;29;20043;-91
2022/08/29 05:36:01;;;;;;;50.83;18.67;;;;;;;21.84;58.12;93714.00;4769546;29;20054;-87
2022/08/29 05:38:28;;;;;;;41.70;18.85;;;;;;;21.89;58.23;93704.88;4784392;29;20074;-91
2022/08/29 05:41:06;;;;;;;58.58;18.30;;;;;;;21.88;58.18;93713.66;4775561;29;20035;-93
2022/08/29 05:43:32;;;;;;;43.13;13.80;;;;;;;21.91;58.26;93709.84;4748345;29;20083;-89
2022/08/29 05:46:05;;;;;;;73.60;15.70;;;;;;;21.87;58.38;93721.16;4787554;29;20039;-86
2022/08/29 05:48:32;;;;;;;37.47;13.32;;;;;;;21.86;58.80;93718.97;4808856;29;20141;-85
2022/08/29 05:50:57;;;;;;;46.22;17.60;;;;;;;21.84;58.46;93707.75;4819521;29;20420;-87
2022/08/29 05:53:23;;;;;;;72.47;21.80;;;;;;;21.84;58.64;93705.72;4809576;29;20495;-91
2022/08/29 05:55:48;;;;;;;67.55;19.15;;;;;;;21.90;58.62;93711.88;4822518;29;20132;-88
2022/08/29 05:58:32;;;;;;;58.53;17.98;;;;;;;21.85;58.65;93707.22;4831389;29;20034;-89
2022/08/29 06:00:59;;;;;;;20.55;10.65;;;;;;;21.81;58.77;93701.28;4831313;29;20035;-88
2022/08/29 06:03:27;;;;;;;110.32;25.67;;;;;;;21.87;58.69;93709.41;4795950;29;20047;-90
2022/08/29 06:05:56;;;;;;;42.20;13.43;;;;;;;21.85;58.96;93720.97;4775249;30;20048;-86
2022/08/29 06:08:22;;;;;;;55.40;13.52;;;;;;;21.83;59.01;93720.00;4770434;29;20055;-90
2022/08/29 06:10:47;;;;;;;57.10;13.43;;;;;;;21.82;58.49;93716.53;4764633;29;20050;-88
2022/08/29 06:13:13;;;;;;;26.95;10.50;;;;;;;21.83;58.86;93723.50;4752903;29;20051;-87
2022/08/29 06:15:43;;;;;;;35.70;10.55;;;;;;;21.83;59.31;93728.28;4770305;30;20050;-90
2022/08/29 06:18:08;;;;;;;33.95;13.48;;;;;;;21.86;59.05;93730.72;4756575;29;20190;-91
2022/08/29 06:20:37;;;;;;;28.27;15.93;;;;;;;21.84;59.38;93744.25;4764645;30;20048;-89
2022/08/29 06:23:02;;;;;;;38.65;21.98;;;;;;;21.83;59.29;93742.78;4756212;30;20055;-85
2022/08/29 06:25:27;;;;;;;49.75;28.65;;;;;;;21.92;58.98;93738.13;4761998;29;20051;-88
2022/08/29 06:28:02;;;;;;;43.10;21.10;;;;;;;21.86;59.28;93741.72;4778831;30;20051;-86
2022/08/29 06:30:32;;;;;;;40.80;17.02;;;;;;;21.84;59.43;93747.00;4774375;30;20083;-88
2022/08/29 06:32:58;;;;;;;74.38;33.85;;;;;;;21.83;59.12;93733.78;4767436;30;20043;-92
2022/08/29 06:35:23;;;;;;;43.80;22.63;;;;;;;21.84;59.25;93738.75;4773504;29;20050;-90
2022/08/29 06:37:50;;;;;;;30.70;16.00;;;;;;;21.83;59.40;93739.28;4807510;29;20613;-88
2022/08/29 06:40:23;;;;;;;26.80;13.10;;;;;;;21.81;59.39;93748.06;4812435;29;20111;-89
2022/08/29 06:42:50;;;;;;;36.40;14.00;;;;;;;21.82;59.48;93740.53;4806581;29;20557;-90
2022/08/29 06:45:17;;;;;;;32.10;14.18;;;;;;;21.80;59.46;93741.06;4797163;29;20052;-91
2022/08/29 06:47:51;;;;;;;34.53;15.50;;;;;;;21.79;59.24;93742.34;4772213;30;20519;-88
2022/08/29 06:50:18;;;;;;;34.13;16.90;;;;;;;21.82;59.11;93735.03;4755553;29;20112;-89
2022/08/29 06:52:47;;;;;;;47.97;19.45;;;;;;;21.81;59.69;93739.06;4776941;30;20043;-92
2022/08/29 06:55:13;;;;;;;37.50;17.33;;;;;;;21.80;59.61;93741.06;4737852;30;20048;-94
2022/08/29 06:57:49;;;;;;;43.08;20.50;;;;;;;21.79;59.79;93747.09;4709510;30;20070;-91
2022/08/29 07:01:15;;;;;;;41.58;20.67;;;;;;;21.83;59.61;93753.78;4712944;30;20067;-94
2022/08/29 07:03:41;;;;;;;43.65;19.13;;;;;;;21.78;59.61;93742.84;4686517;30;20057;-92
2022/08/29 07:06:07;;;;;;;47.45;21.48;;;;;;;21.76;59.30;93751.63;4693220;30;20049;-91
2022/08/29 07:08:32;;;;;;;41.50;18.33;;;;;;;21.76;59.39;93743.38;4680825;30;20045;-92
2022/08/29 07:11:24;;;;;;;43.40;16.95;;;;;;;21.82;59.37;93752.28;4699836;30;20084;-96
2022/08/29 07:13:50;;;;;;;36.10;17.52;;;;;;;21.78;59.46;93749.09;4704264;30;20315;-89
2022/08/29 07:16:17;;;;;;;37.97;17.27;;;;;;;21.81;59.45;93747.31;4710508;30;20067;-89
2022/08/29 07:18:43;;;;;;;29.65;17.15;;;;;;;21.77;59.71;93746.88;4716964;30;20048;-90
2022/08/29 07:21:10;;;;;;;30.38;16.73;;;;;;;21.78;59.59;93742.84;4735364;30;20777;-90
2022/08/29 07:23:35;;;;;;;43.08;17.52;;;;;;;21.78;59.39;93745.63;4719586;30;20190;-88
2022/08/29 07:26:08;;;;;;;35.13;17.10;;;;;;;21.78;59.61;93748.34;4736679;30;20040;-89
2022/08/29 07:28:34;;;;;;;48.63;17.60;;;;;;;21.76;60.05;93742.63;4763329;30;20132;-93
2022/08/29 07:31:00;;;;;;;24.63;14.25;;;;;;;21.75;59.92;93750.16;4768646;29;20060;-91
2022/08/29 07:33:27;;;;;;;34.65;16.02;;;;;;;21.78;60.08;93753.88;4767622;29;20116;-94
2022/08/29 07:35:53;;;;;;;36.05;17.15;;;;;;;21.76;60.19;93750.91;4772267;30;20143;-90
2022/08/29 07:38:20;;;;;;;64.05;27.42;;;;;;;21.78;59.86;93745.63;4775846;29;20130;-89
2022/08/29 07:40:47;;;;;;;67.13;25.35;;;;;;;21.80;60.23;93740.31;4764930;29;20531;-89
2022/08/29 07:43:15;;;;;;;46.80;20.95;;;;;;;21.79;60.43;93752.59;4802097;29;20047;-90
2022/08/29 07:45:40;;;;;;;47.38;20.77;;;;;;;21.82;60.13;93751.56;4784088;29;20040;-89
2022/08/29 07:48:06;;;;;;;72.57;24.90;;;;;;;21.84;59.77;93755.28;4778672;29;20088;-93
2022/08/29 07:50:31;;;;;;;35.33;18.40;;;;;;;21.79;59.97;93758.09;4794063;29;20065;-90
2022/08/29 07:52:58;;;;;;;29.75;17.50;;;;;;;21.80;60.31;93765.84;4824926;29;20049;-91
2022/08/29 07:55:24;;;;;;;33.97;16.67;;;;;;;21.78;60.04;93762.88;4824888;29;20049;-90
2022/08/29 07:57:51;;;;;;;37.40;19.45;;;;;;;21.79;60.24;93763.59;4820740;29;20045;-91
2022/08/29 08:00:17;;;;;;;41.80;20.35;;;;;;;21.79;60.16;93761.59;4834429;29;20061;-91
2022/08/29 08:02:42;;;;;;;52.20;20.23;;;;;;;21.80;60.01;93759.59;4827092;29;20042;-90
2022/08/29 08:05:08;;;;;;;31.90;18.52;;;;;;;21.81;59.74;93763.81;4801315;29;20068;-92
2022/08/29 08:07:34;;;;;;;38.05;19.30;;;;;;;21.79;59.56;93763.59;4786968;29;20050;-92
2022/08/29 08:10:02;;;;;;;38.28;20.15;;;;;;;21.79;59.36;93767.09;4789867;29;20141;-91
2022/08/29 08:12:28;;;;;;;38.25;19.67;;;;;;;21.82;59.17;93763.31;4782689;29;20054;-90
2022/08/29 08:14:54;;;;;;;43.45;19.15;;;;;;;21.82;59.37;93768.06;4806379;29;20039;-91
2022/08/29 08:17:22;;;;;;;28.15;16.98;;;;;;;21.82;59.19;93768.06;4788846;29;20047;-88
2022/08/29 08:19:47;;;;;;;32.67;19.80;;;;;;;21.81;59.38;93764.56;4793738;29;20046;-88
2022/08/29 08:22:13;;;;;;;33.00;18.23;;;;;;;21.85;59.33;93769.78;4798777;29;20104;-90
2022/08/29 08:24:38;;;;;;;30.23;18.75;;;;;;;21.87;59.20;93772.72;4790296;29;20107;-90
2022/08/29 08:27:04;;;;;;;29.92;19.52;;;;;;;21.88;59.18;93774.94;4783285;29;20047;-89
2022/08/29 08:29:29;;;;;;;43.83;20.92;;;;;;;21.89;59.29;93781.94;4783794;29;20058;-88
2022/08/29 08:31:58;;;;;;;37.88;20.50;;;;;;;21.92;59.14;93785.66;4802406;29;20478;-86
2022/08/29 08:34:24;;;;;;;45.17;22.27;;;;;;;21.94;59.17;93782.38;4767232;29;20059;-88
2022/08/29 08:36:49;;;;;;;46.40;24.33;;;;;;;21.97;59.07;93784.81;4806675;29;20081;-88
2022/08/29 08:39:15;;;;;;;39.30;22.30;;;;;;;21.98;58.94;93785.56;4810214;29;20070;-90
2022/08/29 08:41:43;;;;;;;36.70;22.50;;;;;;;21.96;59.26;93788.84;4823496;29;20042;-88
2022/08/29 08:44:14;;;;;;;41.53;24.05;;;;;;;22.03;59.57;93788.28;4825228;29;20054;-91
2022/08/29 08:46:46;;;;;;;45.63;22.33;;;;;;;22.02;59.44;93794.31;4818032;29;20049;-89
2022/08/29 08:49:25;;;;;;;118.78;34.88;;;;;;;22.03;59.38;93793.78;4824139;29;20410;-88
2022/08/29 08:51:54;;;;;;;175.43;82.47;;;;;;;22.04;59.38;93792.50;4836002;29;20501;-92
2022/08/29 08:54:24;;;;;;;113.50;50.67;;;;;;;22.05;59.18;93787.75;4797438;29;20109;-90
2022/08/29 08:56:55;;;;;;;101.78;52.53;;;;;;;22.10;59.01;93793.13;4837268;29;20042;-89
2022/08/29 08:59:33;;;;;;;101.95;53.42;;;;;;;22.13;59.10;93785.84;4846829;29;20041;-91
2022/08/29 09:02:14;;;;;;;88.00;44.25;;;;;;;22.16;59.13;93791.03;4794330;29;20053;-91
2022/08/29 09:04:52;;;;;;;108.65;56.13;;;;;;;22.16;59.03;93796.56;4825727;29;20049;-88
2022/08/29 09:07:48;;;;;;;92.18;54.22;;;;;;;22.16;59.05;93796.56;4837512;29;20417;-89
2022/08/29 09:10:39;;;;;;;117.97;58.90;;;;;;;22.19;59.07;93806.53;4825355;29;20122;-92
2022/08/29 09:13:23;;;;;;;142.95;66.45;;;;;;;22.22;59.22;93799.97;4812728;29;20073;-90
2022/08/29 09:16:02;;;;;;;152.88;64.15;;;;;;;22.22;59.13;93801.97;4826213;29;20052;-90
2022/08/29 09:18:38;;;;;;;212.75;109.15;;;;;;;22.27;58.96;93798.38;4812802;29;20050;-88
2022/08/29 09:21:09;;;;;;;153.98;66.72;;;;;;;22.31;58.76;93809.81;4802401;29;20066;-89
2022/08/29 09:23:48;;;;;;;155.23;66.13;;;;;;;22.27;59.09;93808.66;4838985;29;20057;-87
2022/08/29 09:26:18;;;;;;;125.10;53.70;;;;;;;22.31;58.95;93800.81;4810960;29;20050;-94
2022/08/29 09:28:43;;;;;;;115.07;56.13;;;;;;;22.29;58.94;93806.13;4816713;29;20049;-92
2022/08/29 09:31:17;;;;;;;116.38;55.63;;;;;;;22.28;59.39;93805.38;4804486;29;20049;-89
2022/08/29 09:33:44;;;;;;;124.30;54.88;;;;;;;22.31;59.01;93804.31;4841675;29;20038;-90
2022/08/29 09:36:16;;;;;;;107.28;53.60;;;;;;;22.34;59.00;93808.03;4842812;29;20045;-88
2022/08/29 09:38:42;;;;;;;122.28;52.95;;;;;;;22.34;59.06;93811.53;4830215;29;20053;-90
2022/08/29 09:41:09;;;;;;;96.45;48.60;;;;;;;22.38;58.65;93811.94;4835072;29;20045;-94
2022/08/29 09:43:37;;;;;;;81.47;45.72;;;;;;;22.35;58.82;93818.50;4836625;29;20107;-91
2022/08/29 09:46:10;;;;;;;87.68;46.47;;;;;;;22.35;58.68;93815.75;4837417;29;20045;-91
2022/08/29 09:48:37;;;;;;;79.30;45.17;;;;;;;22.36;59.22;93820.00;4858988;29;20049;-89
2022/08/29 09:51:14;;;;;;;81.57;44.80;;;;;;;22.37;58.67;93806.97;4826379;29;20138;-89
2022/08/29 09:53:41;;;;;;;85.60;43.67;;;;;;;22.38;58.62;93809.19;4804480;29;20129;-92
2022/08/29 09:56:14;;;;;;;73.53;39.72;;;;;;;22.39;58.72;93804.44;4829451;29;20045;-91
2022/08/29 09:58:41;;;;;;;88.88;43.58;;;;;;;22.39;58.64;93810.69;4839967;29;20064;-87
2022/08/29 10:01:22;;;;;;;87.07;42.78;;;;;;;22.39;58.91;93801.69;4823027;29;20049;-91
2022/08/29 10:04:01;;;;;;;89.85;43.28;;;;;;;22.40;59.03;93809.41;4844312;29;20048;-88
2022/08/29 10:06:31;;;;;;;86.30;42.50;;;;;;;22.42;58.76;93806.88;4877392;29;20033;-87
2022/08/29 10:09:36;;;;;;;101.13;44.50;;;;;;;22.42;58.74;93811.66;4853881;29;20042;-89
2022/08/29 10:12:13;;;;;;;77.72;42.75;;;;;;;22.42;58.70;93801.38;4815139;29;20046;-89
2022/08/29 10:14:48;;;;;;;83.82;44.38;;;;;;;22.45;58.84;93807.84;4807197;29;20051;-90
2022/08/29 10:20:04;;;;;;;69.80;36.33;;;;;;;22.46;58.79;93807.31;4848059;29;20041;-87
2022/08/29 10:22:49;;;;;;;76.97;39.67;;;;;;;22.43;58.64;93802.13;4822665;29;20039;-89
2022/08/29 10:25:34;;;;;;;72.35;38.75;;;;;;;22.44;58.74;93801.59;4859811;23;20029;-88
2022/08/29 10:28:21;;;;;;;68.82;38.65;;;;;;;22.44;58.78;93803.59;4850330;29;20049;-88
2022/08/29 10:30:48;;;;;;;79.05;41.25;;;;;;;22.48;58.85;93804.78;4866400;29;20066;-87
2022/08/29 10:33:41;;;;;;;90.30;40.00;;;;;;;22.46;58.61;93798.31;4863212;29;20094;-88
2022/08/29 10:36:14;;;;;;;84.15;41.05;;;;;;;22.50;58.80;93805.00;4858878;29;20049;-87
2022/08/29 10:38:54;;;;;;;93.70;39.90;;;;;;;22.50;59.01;93802.25;4818674;29;20046;-89
2022/08/29 10:41:42;;;;;;;;;;;;;;;22.48;58.98;93796.50;4810756;29;20117;-87
2022/08/29 10:44:19;;;;;;;106.47;45.60;;;;;;;22.51;58.89;93797.47;4841456;29;19920;-87
2022/08/29 10:47:08;;;;;;;86.05;48.85;;;;;;;22.48;58.85;93795.75;4847668;29;20045;-88
2022/08/29 10:50:03;;;;;;;81.75;47.13;;;;;;;22.48;58.78;93796.50;4858614;29;20477;-87
2022/08/29 10:52:53;;;;;;;88.00;50.53;;;;;;;22.49;58.70;93789.72;4843735;29;20053;-87
2022/08/29 10:55:31;;;;;;;78.55;46.20;;;;;;;22.50;59.00;93804.25;4862525;29;20046;-87
2022/08/29 10:58:09;;;;;;;93.88;48.63;;;;;;;22.50;58.90;93793.22;4872510;29;20050;-89
2022/08/29 11:00:55;;;;;;;97.97;49.92;;;;;;;22.51;58.92;93792.69;4831429;29;20616;-88
2022/08/29 11:03:57;;;;;;;97.40;47.28;;;;;;;22.51;58.95;93787.19;4865373;29;20126;-88
2022/08/29 11:06:33;;;;;;;95.85;46.17;;;;;;;22.51;58.83;93789.94;4857099;29;20723;-89
2022/08/29 11:09:20;;;;;;;95.13;45.60;;;;;;;22.52;58.92;93785.91;4846556;29;20030;-87
2022/08/29 11:12:03;;;;;;;100.45;43.58;;;;;;;22.56;58.88;93778.06;4827859;29;20058;-88
2022/08/29 11:14:34;;;;;;;101.95;42.45;;;;;;;22.56;58.77;93778.06;4837467;29;20041;-90
2022/08/29 11:17:00;;;;;;;77.20;41.03;;;;;;;22.60;58.70;93774.25;4813125;29;20038;-89
2022/08/29 11:19:31;;;;;;;94.45;43.28;;;;;;;22.60;58.51;93780.50;4833404;29;20513;-89
2022/08/29 11:22:09;;;;;;;;;;;;;;;22.57;58.97;93773.28;4841347;29;20045;-88
2022/08/29 11:24:35;;;;;;;74.75;41.30;;;;;;;22.63;58.84;93765.66;4845767;29;19928;-87
2022/08/29 11:27:20;;;;;;;89.75;42.25;;;;;;;22.57;59.12;93782.31;4859681;29;20120;-89
2022/08/29 11:30:07;;;;;;;74.20;40.97;;;;;;;22.60;58.86;93777.75;4846452;29;20058;-86
2022/08/29 11:32:55;;;;;;;71.35;39.50;;;;;;;22.61;58.94;93776.47;4847971;29;20049;-91
2022/08/29 11:35:24;;;;;;;71.72;37.80;;;;;;;22.66;58.97;93770.13;4873185;29;20053;-90
2022/08/29 11:38:02;;;;;;;68.07;37.67;;;;;;;22.65;58.77;93768.63;4853523;29;20052;-87
2022/08/29 11:40:55;;;;;;;64.85;37.13;;;;;;;22.66;58.87;93778.38;4854627;29;20049;-88